createdAt,value
2023-02-12T00:00:50.740Z,99.99
2023-02-12T00:01:50.687Z,99.99
2023-02-12T00:02:50.672Z,99.99
2023-02-12T00:03:50.691Z,99.99
2023-02-12T00:04:51.660Z,99.99
2023-02-12T00:05:50.654Z,99.99
2023-02-12T00:06:50.636Z,99.99
2023-02-12T00:07:50.600Z,99.99
2023-02-12T00:08:50.619Z,99.99
2023-02-12T00:09:50.559Z,99.99
2023-02-12T00:10:50.590Z,99.99
2023-02-12T00:11:51.332Z,99.99
2023-02-12T00:12:50.555Z,99.99
2023-02-12T00:13:50.539Z,99.99
2023-02-12T00:14:50.522Z,99.99
2023-02-12T00:15:50.516Z,99.99
2023-02-12T00:16:50.486Z,99.99
2023-02-12T00:17:50.488Z,99.99
2023-02-12T00:18:50.495Z,99.99
2023-02-12T00:19:50.438Z,99.99
2023-02-12T00:20:50.574Z,99.99
2023-02-12T00:21:50.409Z,99.99
2023-02-12T00:22:50.435Z,99.99
2023-02-12T00:23:50.396Z,99.99
2023-02-12T00:24:50.396Z,99.99
2023-02-12T00:25:50.393Z,99.99
2023-02-12T00:26:50.383Z,99.99
2023-02-12T00:27:50.344Z,99.99
2023-02-12T00:28:50.353Z,99.99
2023-02-12T00:29:50.332Z,99.99
2023-02-12T00:30:50.447Z,99.99
2023-02-12T00:31:50.345Z,99.99
2023-02-12T00:32:50.302Z,99.99
2023-02-12T00:33:50.281Z,99.99
2023-02-12T00:34:50.246Z,99.99
2023-02-12T00:35:50.262Z,99.99
2023-02-12T00:36:50.223Z,99.99
2023-02-12T00:37:50.222Z,99.99
2023-02-12T00:38:50.203Z,99.99
2023-02-12T00:39:50.241Z,99.99
2023-02-12T00:40:50.201Z,99.99
2023-02-12T00:41:50.177Z,99.99
2023-02-12T00:42:50.144Z,99.99
2023-02-12T00:43:50.157Z,99.99
2023-02-12T00:44:50.123Z,99.99
2023-02-12T00:45:50.173Z,99.99
2023-02-12T00:46:50.219Z,99.99
2023-02-12T00:47:50.099Z,99.99
2023-02-12T00:48:50.109Z,99.99
2023-02-12T00:49:50.045Z,99.99
2023-02-12T00:50:50.117Z,99.99
2023-02-12T00:51:50.049Z,99.99
2023-02-12T00:52:50.040Z,99.99
2023-02-12T00:53:49.994Z,99.99
2023-02-12T00:54:50.000Z,99.99
2023-02-12T00:55:49.961Z,99.99
2023-02-12T00:56:50.026Z,99.99
2023-02-12T00:57:49.968Z,99.99
2023-02-12T00:58:49.961Z,99.99
2023-02-12T00:59:49.947Z,99.99
2023-02-12T01:00:49.938Z,99.99
2023-02-12T01:01:49.980Z,99.99
2023-02-12T01:02:49.890Z,99.99
2023-02-12T01:03:49.907Z,99.99
2023-02-12T01:04:49.898Z,99.99
2023-02-12T01:05:49.867Z,99.99
2023-02-12T01:06:49.908Z,99.99
2023-02-12T01:07:49.831Z,99.99
2023-02-12T01:08:49.813Z,99.99
2023-02-12T01:09:49.798Z,99.99
2023-02-12T01:10:49.794Z,99.99
2023-02-12T01:11:50.801Z,99.99
2023-02-12T01:12:57.334Z,99.99
2023-02-12T01:13:49.760Z,99.99
2023-02-12T01:14:50.529Z,99.99
2023-02-12T01:15:49.762Z,99.99
2023-02-12T01:16:49.756Z,99.99
2023-02-12T01:17:49.732Z,99.99
2023-02-12T01:18:49.688Z,99.99
2023-02-12T01:19:49.665Z,99.99
2023-02-12T01:20:49.668Z,99.99
2023-02-12T01:21:49.680Z,99.99
2023-02-12T01:22:49.669Z,99.99
2023-02-12T01:23:49.642Z,99.99
2023-02-12T01:24:49.644Z,99.99
2023-02-12T01:25:49.616Z,99.99
2023-02-12T01:26:49.584Z,99.99
2023-02-12T01:27:49.599Z,99.99
2023-02-12T01:28:49.565Z,99.99
2023-02-12T01:29:49.559Z,99.99
2023-02-12T01:30:49.615Z,99.99
2023-02-12T01:31:49.705Z,99.99
2023-02-12T01:32:49.513Z,99.99
2023-02-12T01:33:49.509Z,99.99
2023-02-12T01:34:49.519Z,99.99
2023-02-12T01:35:49.475Z,99.99
2023-02-12T01:36:49.454Z,99.99
2023-02-12T01:37:49.490Z,99.99
2023-02-12T01:38:49.442Z,99.99
2023-02-12T01:39:49.410Z,99.99
2023-02-12T01:40:49.426Z,99.99
2023-02-12T01:41:49.372Z,99.99
2023-02-12T01:42:49.416Z,99.99
2023-02-12T01:43:49.348Z,99.99
2023-02-12T01:44:49.364Z,99.99
2023-02-12T01:45:49.329Z,99.99
2023-02-12T01:46:49.414Z,99.99
2023-02-12T01:47:49.316Z,99.99
2023-02-12T01:48:49.334Z,99.99
2023-02-12T01:49:49.282Z,99.99
2023-02-12T01:50:49.286Z,99.99
2023-02-12T01:51:49.286Z,99.99
2023-02-12T01:52:49.295Z,99.99
2023-02-12T01:53:49.233Z,99.99
2023-02-12T01:54:49.253Z,99.99
2023-02-12T01:55:49.199Z,99.99
2023-02-12T01:56:49.208Z,99.99
2023-02-12T01:57:49.241Z,99.99
2023-02-12T01:58:49.169Z,99.99
2023-02-12T01:59:49.159Z,99.99
2023-02-12T02:00:49.140Z,99.99
2023-02-12T02:01:49.212Z,99.99
2023-02-12T02:02:49.172Z,99.99
2023-02-12T02:03:49.112Z,99.99
2023-02-12T02:04:49.127Z,99.99
2023-02-12T02:05:49.112Z,99.99
2023-02-12T02:06:49.066Z,99.99
2023-02-12T02:07:49.103Z,99.99
2023-02-12T02:08:49.066Z,99.99
2023-02-12T02:09:49.098Z,99.99
2023-02-12T02:10:49.041Z,99.99
2023-02-12T02:11:49.006Z,99.99
2023-02-12T02:12:48.999Z,99.99
2023-02-12T02:13:48.992Z,99.99
2023-02-12T02:14:48.987Z,99.99
2023-02-12T02:15:49.035Z,99.99
2023-02-12T02:16:48.959Z,99.99
2023-02-12T02:17:48.934Z,99.99
2023-02-12T02:18:48.913Z,99.99
2023-02-12T02:19:48.950Z,99.99
2023-02-12T02:20:48.908Z,99.99
2023-02-12T02:21:48.912Z,99.99
2023-02-12T02:22:48.876Z,99.99
2023-02-12T02:23:48.865Z,99.99
2023-02-12T02:24:48.847Z,99.99
2023-02-12T02:25:48.819Z,99.99
2023-02-12T02:26:48.832Z,99.99
2023-02-12T02:27:48.826Z,99.99
2023-02-12T02:28:48.785Z,99.99
2023-02-12T02:29:48.781Z,99.99
2023-02-12T02:30:48.791Z,99.99
2023-02-12T02:31:48.805Z,99.99
2023-02-12T02:32:48.728Z,99.99
2023-02-12T02:33:48.737Z,99.99
2023-02-12T02:34:48.685Z,99.99
2023-02-12T02:35:48.685Z,99.99
2023-02-12T02:37:00.165Z,99.99
2023-02-12T02:37:49.731Z,99.99
2023-02-12T02:38:48.663Z,99.99
2023-02-12T02:39:48.658Z,99.99
2023-02-12T02:40:48.641Z,99.99
2023-02-12T02:41:48.616Z,99.99
2023-02-12T02:42:48.629Z,99.99
2023-02-12T02:43:48.631Z,99.99
2023-02-12T02:44:48.561Z,99.99
2023-02-12T02:45:48.589Z,99.99
2023-02-12T02:46:48.662Z,99.99
2023-02-12T02:47:48.550Z,99.99
2023-02-12T02:48:48.539Z,99.99
2023-02-12T02:49:48.505Z,99.99
2023-02-12T02:50:48.503Z,99.99
2023-02-12T02:51:48.521Z,99.99
2023-02-12T02:52:48.491Z,99.99
2023-02-12T02:53:48.501Z,99.99
2023-02-12T02:54:48.470Z,99.99
2023-02-12T02:55:48.459Z,99.99
2023-02-12T02:56:48.419Z,99.99
2023-02-12T02:57:48.400Z,99.99
2023-02-12T02:58:48.392Z,99.99
2023-02-12T02:59:48.375Z,99.99
2023-02-12T03:00:48.375Z,99.99
2023-02-12T03:01:48.369Z,99.99
2023-02-12T03:02:48.419Z,99.99
2023-02-12T03:03:48.375Z,99.99
2023-02-12T03:04:48.335Z,99.99
2023-02-12T03:05:48.306Z,99.99
2023-02-12T03:06:48.286Z,99.99
2023-02-12T03:07:48.319Z,99.99
2023-02-12T03:08:48.276Z,99.99
2023-02-12T03:09:48.274Z,99.99
2023-02-12T03:10:48.255Z,99.99
2023-02-12T03:11:48.230Z,99.99
2023-02-12T03:12:48.217Z,99.99
2023-02-12T03:13:48.237Z,99.99
2023-02-12T03:14:48.181Z,99.99
2023-02-12T03:15:48.202Z,99.99
2023-02-12T03:16:48.214Z,99.99
2023-02-12T03:17:48.191Z,99.99
2023-02-12T03:18:48.135Z,99.99
2023-02-12T03:19:48.120Z,99.99
2023-02-12T03:20:48.131Z,99.99
2023-02-12T03:21:48.090Z,99.99
2023-02-12T03:22:48.078Z,99.99
2023-02-12T03:23:48.114Z,99.99
2023-02-12T03:24:48.089Z,99.99
2023-02-12T03:25:48.043Z,99.99
2023-02-12T03:26:48.027Z,99.99
2023-02-12T03:27:48.053Z,99.99
2023-02-12T03:28:48.043Z,99.99
2023-02-12T03:29:47.998Z,99.99
2023-02-12T03:30:48.049Z,99.99
2023-02-12T03:31:48.044Z,99.99
2023-02-12T03:32:47.974Z,99.99
2023-02-12T03:33:47.955Z,99.99
2023-02-12T03:34:47.955Z,99.99
2023-02-12T03:35:47.932Z,99.99
2023-02-12T03:36:47.917Z,99.99
2023-02-12T03:37:47.944Z,99.99
2023-02-12T03:38:47.894Z,99.99
2023-02-12T03:39:47.859Z,99.99
2023-02-12T03:40:47.866Z,99.99
2023-02-12T03:41:47.894Z,99.99
2023-02-12T03:42:47.854Z,99.99
2023-02-12T03:43:47.841Z,99.99
2023-02-12T03:44:47.817Z,99.99
2023-02-12T03:45:47.831Z,99.99
2023-02-12T03:46:47.758Z,99.99
2023-02-12T03:47:47.771Z,99.99
2023-02-12T03:48:47.790Z,99.99
2023-02-12T03:49:47.740Z,99.99
2023-02-12T03:50:47.741Z,99.99
2023-02-12T03:51:47.743Z,99.99
2023-02-12T03:52:47.722Z,99.99
2023-02-12T03:53:47.725Z,99.99
2023-02-12T03:54:47.680Z,99.99
2023-02-12T03:55:47.681Z,99.99
2023-02-12T03:56:47.639Z,99.99
2023-02-12T03:57:47.631Z,99.99
2023-02-12T03:58:47.623Z,99.99
2023-02-12T03:59:47.638Z,99.99
2023-02-12T04:00:47.637Z,99.99
2023-02-12T04:01:47.781Z,99.99
2023-02-12T04:02:47.564Z,99.99
2023-02-12T04:03:47.595Z,99.99
2023-02-12T04:04:47.549Z,99.99
2023-02-12T04:05:47.534Z,99.99
2023-02-12T04:06:47.497Z,99.99
2023-02-12T04:07:47.507Z,99.99
2023-02-12T04:08:47.559Z,99.99
2023-02-12T04:09:47.493Z,99.99
2023-02-12T04:10:47.481Z,99.99
2023-02-12T04:11:47.445Z,99.99
2023-02-12T04:12:47.458Z,99.99
2023-02-12T04:13:47.486Z,99.99
2023-02-12T04:14:47.402Z,99.99
2023-02-12T04:15:47.402Z,99.99
2023-02-12T04:16:47.430Z,99.99
2023-02-12T04:17:47.401Z,99.99
2023-02-12T04:18:47.388Z,99.99
2023-02-12T04:19:47.348Z,99.99
2023-02-12T04:20:47.314Z,99.99
2023-02-12T04:21:47.338Z,99.99
2023-02-12T04:22:47.294Z,99.99
2023-02-12T04:23:47.349Z,99.99
2023-02-12T04:24:47.261Z,99.99
2023-02-12T04:25:47.320Z,99.99
2023-02-12T04:26:47.260Z,99.99
2023-02-12T04:27:47.270Z,99.99
2023-02-12T04:28:47.262Z,99.99
2023-02-12T04:29:47.249Z,99.99
2023-02-12T04:30:47.318Z,99.99
2023-02-12T04:31:47.370Z,99.99
2023-02-12T04:32:47.171Z,99.99
2023-02-12T04:33:47.216Z,99.99
2023-02-12T04:34:47.160Z,99.99
2023-02-12T04:35:47.170Z,99.99
2023-02-12T04:36:47.151Z,99.99
2023-02-12T04:37:47.123Z,99.99
2023-02-12T04:38:47.135Z,99.99
2023-02-12T04:39:47.095Z,99.99
2023-02-12T04:40:47.099Z,99.99
2023-02-12T04:41:47.063Z,99.99
2023-02-12T04:42:47.076Z,99.99
2023-02-12T04:43:47.082Z,99.99
2023-02-12T04:44:47.010Z,99.99
2023-02-12T04:45:47.080Z,99.99
2023-02-12T04:46:47.015Z,99.99
2023-02-12T04:47:47.020Z,99.99
2023-02-12T04:48:47.011Z,99.99
2023-02-12T04:49:46.980Z,99.99
2023-02-12T04:50:46.960Z,99.99
2023-02-12T04:51:46.940Z,99.99
2023-02-12T04:52:46.925Z,99.99
2023-02-12T04:53:46.980Z,99.99
2023-02-12T04:54:46.892Z,99.99
2023-02-12T04:55:46.879Z,99.99
2023-02-12T04:56:46.872Z,99.99
2023-02-12T04:57:46.852Z,99.99
2023-02-12T04:58:46.861Z,99.99
2023-02-12T04:59:46.869Z,99.99
2023-02-12T05:00:46.801Z,99.99
2023-02-12T05:01:46.911Z,99.99
2023-02-12T05:02:46.807Z,99.99
2023-02-12T05:03:46.781Z,99.99
2023-02-12T05:04:46.793Z,99.99
2023-02-12T05:05:46.778Z,99.99
2023-02-12T05:06:46.769Z,99.99
2023-02-12T05:07:46.721Z,99.99
2023-02-12T05:08:46.709Z,99.99
2023-02-12T05:09:46.746Z,99.99
2023-02-12T05:10:46.702Z,99.99
2023-02-12T05:11:46.672Z,99.99
2023-02-12T05:12:46.688Z,99.99
2023-02-12T05:13:46.650Z,99.99
2023-02-12T05:14:46.659Z,99.99
2023-02-12T05:15:46.658Z,99.99
2023-02-12T05:16:46.655Z,99.99
2023-02-12T05:17:46.599Z,99.99
2023-02-12T05:18:46.580Z,99.99
2023-02-12T05:19:46.616Z,99.99
2023-02-12T05:20:46.555Z,99.99
2023-02-12T05:21:46.573Z,99.99
2023-02-12T05:22:46.520Z,99.99
2023-02-12T05:23:46.527Z,99.99
2023-02-12T05:24:46.554Z,99.99
2023-02-12T05:25:46.515Z,99.99
2023-02-12T05:26:46.504Z,99.99
2023-02-12T05:27:46.499Z,99.99
2023-02-12T05:28:46.479Z,99.99
2023-02-12T05:29:46.466Z,99.99
2023-02-12T05:30:46.511Z,99.99
2023-02-12T05:31:46.584Z,99.99
2023-02-12T05:32:46.454Z,99.99
2023-02-12T05:33:46.423Z,99.99
2023-02-12T05:34:46.400Z,99.99
2023-02-12T05:35:46.394Z,99.99
2023-02-12T05:36:46.374Z,99.99
2023-02-12T05:37:46.395Z,99.99
2023-02-12T05:38:46.371Z,99.99
2023-02-12T05:39:46.382Z,99.99
2023-02-12T05:40:46.292Z,99.99
2023-02-12T05:41:46.304Z,99.99
2023-02-12T05:42:46.279Z,99.99
2023-02-12T05:43:49.218Z,99.99
2023-02-12T05:44:46.280Z,99.99
2023-02-12T05:45:46.267Z,99.99
2023-02-12T05:46:46.251Z,99.99
2023-02-12T05:47:46.208Z,99.99
2023-02-12T05:48:46.232Z,99.99
2023-02-12T05:49:46.235Z,99.99
2023-02-12T05:50:46.162Z,99.99
2023-02-12T05:51:46.161Z,99.99
2023-02-12T05:52:46.156Z,99.99
2023-02-12T05:53:46.167Z,99.99
2023-02-12T05:54:46.154Z,99.99
2023-02-12T05:55:46.098Z,99.99
2023-02-12T05:56:46.081Z,99.99
2023-02-12T05:57:46.116Z,99.99
2023-02-12T05:58:46.070Z,99.99
2023-02-12T05:59:46.103Z,99.99
2023-02-12T06:00:46.028Z,99.99
2023-02-12T06:01:46.062Z,99.99
2023-02-12T06:02:46.064Z,99.99
2023-02-12T06:03:46.015Z,99.99
2023-02-12T06:04:48.521Z,99.99
2023-02-12T06:05:46.023Z,99.99
2023-02-12T06:06:45.981Z,99.99
2023-02-12T06:07:45.982Z,99.99
2023-02-12T06:08:45.936Z,99.99
2023-02-12T06:09:45.977Z,99.99
2023-02-12T06:10:45.919Z,99.99
2023-02-12T06:11:45.929Z,99.99
2023-02-12T06:12:45.884Z,99.99
2023-02-12T06:13:45.872Z,99.99
2023-02-12T06:14:45.909Z,99.99
2023-02-12T06:15:45.909Z,99.99
2023-02-12T06:16:45.884Z,99.99
2023-02-12T06:17:45.846Z,99.99
2023-02-12T06:18:45.838Z,99.99
2023-02-12T06:19:45.821Z,99.99
2023-02-12T06:20:45.782Z,99.99
2023-02-12T06:21:45.787Z,99.99
2023-02-12T06:22:45.790Z,99.99
2023-02-12T06:23:45.757Z,99.99
2023-02-12T06:24:45.787Z,99.99
2023-02-12T06:25:45.711Z,99.99
2023-02-12T06:26:45.710Z,99.99
2023-02-12T06:27:45.709Z,99.99
2023-02-12T06:28:45.688Z,99.99
2023-02-12T06:29:45.676Z,99.99
2023-02-12T06:30:45.733Z,99.99
2023-02-12T06:31:45.844Z,99.99
2023-02-12T06:32:45.662Z,99.99
2023-02-12T06:33:45.637Z,99.99
2023-02-12T06:34:45.630Z,99.99
2023-02-12T06:35:45.605Z,99.99
2023-02-12T06:36:45.647Z,99.99
2023-02-12T06:37:45.580Z,99.99
2023-02-12T06:38:45.613Z,99.99
2023-02-12T06:39:45.582Z,99.99
2023-02-12T06:40:45.547Z,99.99
2023-02-12T06:41:45.611Z,99.99
2023-02-12T06:42:45.549Z,99.99
2023-02-12T06:43:45.508Z,99.99
2023-02-12T06:44:45.519Z,99.99
2023-02-12T06:45:45.509Z,99.99
2023-02-12T06:46:45.520Z,99.99
2023-02-12T06:47:45.439Z,99.99
2023-02-12T06:48:45.444Z,99.99
2023-02-12T06:49:45.429Z,99.99
2023-02-12T06:50:45.434Z,99.99
2023-02-12T06:51:45.385Z,99.99
2023-02-12T06:52:45.409Z,99.99
2023-02-12T06:53:45.384Z,99.99
2023-02-12T06:54:45.362Z,99.99
2023-02-12T06:55:45.356Z,99.99
2023-02-12T06:56:45.376Z,99.99
2023-02-12T06:57:45.312Z,99.99
2023-02-12T06:58:45.310Z,99.99
2023-02-12T06:59:45.288Z,99.99
2023-02-12T07:00:45.354Z,99.99
2023-02-12T07:01:45.313Z,99.99
2023-02-12T07:02:45.278Z,99.99
2023-02-12T07:03:45.226Z,99.99
2023-02-12T07:04:45.247Z,99.99
2023-02-12T07:05:45.209Z,99.99
2023-02-12T07:06:45.236Z,99.99
2023-02-12T07:07:45.203Z,99.99
2023-02-12T07:08:45.196Z,99.99
2023-02-12T07:09:45.147Z,99.99
2023-02-12T07:10:45.194Z,99.99
2023-02-12T07:11:45.127Z,99.99
2023-02-12T07:12:45.127Z,99.99
2023-02-12T07:13:52.712Z,99.99
2023-02-12T07:14:45.129Z,99.99
2023-02-12T07:15:45.070Z,99.99
2023-02-12T07:16:45.178Z,99.99
2023-02-12T07:17:45.125Z,99.99
2023-02-12T07:18:45.075Z,99.99
2023-02-12T07:19:45.022Z,99.99
2023-02-12T07:20:45.051Z,99.99
2023-02-12T07:21:44.990Z,99.99
2023-02-12T07:22:45.010Z,99.99
2023-02-12T07:23:44.966Z,99.99
2023-02-12T07:24:44.989Z,99.99
2023-02-12T07:25:45.057Z,99.99
2023-02-12T07:26:44.974Z,99.99
2023-02-12T07:27:44.924Z,99.99
2023-02-12T07:28:44.943Z,99.99
2023-02-12T07:29:44.972Z,99.99
2023-02-12T07:30:44.932Z,99.99
2023-02-12T07:31:44.971Z,99.99
2023-02-12T07:32:44.898Z,99.99
2023-02-12T07:33:44.835Z,99.99
2023-02-12T07:34:44.861Z,99.99
2023-02-12T07:35:44.909Z,99.99
2023-02-12T07:36:44.812Z,99.99
2023-02-12T07:37:44.794Z,99.99
2023-02-12T07:38:44.832Z,99.99
2023-02-12T07:39:44.771Z,99.99
2023-02-12T07:40:44.798Z,99.99
2023-02-12T07:41:44.752Z,99.99
2023-02-12T07:42:44.736Z,99.99
2023-02-12T07:43:44.768Z,99.99
2023-02-12T07:44:44.706Z,99.99
2023-02-12T07:45:44.770Z,99.99
2023-02-12T07:46:48.003Z,99.99
2023-02-12T07:47:44.679Z,99.99
2023-02-12T07:48:44.678Z,99.99
2023-02-12T07:49:44.664Z,99.99
2023-02-12T07:50:44.657Z,99.99
2023-02-12T07:51:44.603Z,99.99
2023-02-12T07:52:44.627Z,99.99
2023-02-12T07:53:44.608Z,99.99
2023-02-12T07:54:44.588Z,99.99
2023-02-12T07:55:44.560Z,99.99
2023-02-12T07:56:44.576Z,99.99
2023-02-12T07:57:44.540Z,99.99
2023-02-12T07:58:44.547Z,99.99
2023-02-12T07:59:44.560Z,99.99
2023-02-12T08:00:44.527Z,99.99
2023-02-12T08:01:44.502Z,99.99
2023-02-12T08:02:44.578Z,99.99
2023-02-12T08:03:44.459Z,99.99
2023-02-12T08:04:44.542Z,99.99
2023-02-12T08:05:44.454Z,99.99
2023-02-12T08:06:44.453Z,99.99
2023-02-12T08:07:44.438Z,99.99
2023-02-12T08:08:44.424Z,99.99
2023-02-12T08:09:44.434Z,99.99
2023-02-12T08:10:44.407Z,99.99
2023-02-12T08:11:44.365Z,99.99
2023-02-12T08:12:44.384Z,99.99
2023-02-12T08:13:44.327Z,99.99
2023-02-12T08:14:44.317Z,99.99
2023-02-12T08:15:44.338Z,99.99
2023-02-12T08:16:44.571Z,99.99
2023-02-12T08:17:44.315Z,99.99
2023-02-12T08:18:44.305Z,99.99
2023-02-12T08:19:44.266Z,99.99
2023-02-12T08:20:44.246Z,99.99
2023-02-12T08:21:44.252Z,99.99
2023-02-12T08:22:44.262Z,99.99
2023-02-12T08:23:44.213Z,99.99
2023-02-12T08:24:44.340Z,99.99
2023-02-12T08:25:44.194Z,99.99
2023-02-12T08:26:44.192Z,99.99
2023-02-12T08:27:44.204Z,99.99
2023-02-12T08:28:44.163Z,99.99
2023-02-12T08:29:44.151Z,99.99
2023-02-12T08:30:44.178Z,99.99
2023-02-12T08:31:44.264Z,99.99
2023-02-12T08:32:44.146Z,99.99
2023-02-12T08:33:44.073Z,99.99
2023-02-12T08:34:44.094Z,99.99
2023-02-12T08:35:44.065Z,99.99
2023-02-12T08:36:44.101Z,99.99
2023-02-12T08:37:44.091Z,99.99
2023-02-12T08:38:44.014Z,99.99
2023-02-12T08:39:44.012Z,99.99
2023-02-12T08:40:44.056Z,99.99
2023-02-12T08:41:43.962Z,99.99
2023-02-12T08:42:44.039Z,99.99
2023-02-12T08:43:43.964Z,99.99
2023-02-12T08:44:43.963Z,99.99
2023-02-12T08:45:44.054Z,99.99
2023-02-12T08:46:43.935Z,99.99
2023-02-12T08:47:43.921Z,99.99
2023-02-12T08:48:43.892Z,99.99
2023-02-12T08:49:43.863Z,99.99
2023-02-12T08:50:43.881Z,99.99
2023-02-12T08:51:43.826Z,99.99
2023-02-12T08:52:44.129Z,99.99
2023-02-12T08:53:43.804Z,99.99
2023-02-12T08:54:43.797Z,99.99
2023-02-12T08:55:43.854Z,99.99
2023-02-12T08:56:43.801Z,99.99
2023-02-12T08:57:43.769Z,99.99
2023-02-12T08:58:43.764Z,99.99
2023-02-12T08:59:43.723Z,99.99
2023-02-12T09:00:43.726Z,99.99
2023-02-12T09:01:43.709Z,99.99
2023-02-12T09:02:43.808Z,99.99
2023-02-12T09:03:43.691Z,99.99
2023-02-12T09:04:43.709Z,99.99
2023-02-12T09:05:43.650Z,99.99
2023-02-12T09:06:43.641Z,99.99
2023-02-12T09:07:43.627Z,99.99
2023-02-12T09:08:43.714Z,99.99
2023-02-12T09:09:43.604Z,99.99
2023-02-12T09:10:43.591Z,99.99
2023-02-12T09:11:43.600Z,99.99
2023-02-12T09:12:43.586Z,99.99
2023-02-12T09:13:43.550Z,99.99
2023-02-12T09:14:43.539Z,99.99
2023-02-12T09:15:44.989Z,99.99
2023-02-12T09:16:43.587Z,99.99
2023-02-12T09:17:43.488Z,99.99
2023-02-12T09:18:43.533Z,99.99
2023-02-12T09:19:43.488Z,99.99
2023-02-12T09:20:43.571Z,99.99
2023-02-12T09:21:43.468Z,99.99
2023-02-12T09:22:43.467Z,99.99
2023-02-12T09:23:43.747Z,99.99
2023-02-12T09:24:43.434Z,99.99
2023-02-12T09:25:43.414Z,99.99
2023-02-12T09:26:43.388Z,99.99
2023-02-12T09:27:43.385Z,99.99
2023-02-12T09:28:43.394Z,99.99
2023-02-12T09:29:43.369Z,99.99
2023-02-12T09:30:43.400Z,99.99
2023-02-12T09:31:43.539Z,99.99
2023-02-12T09:32:43.335Z,99.99
2023-02-12T09:33:43.371Z,99.99
2023-02-12T09:34:43.286Z,99.99
2023-02-12T09:35:43.274Z,99.91
2023-02-12T09:36:43.282Z,99.91
2023-02-12T09:37:43.264Z,99.91
2023-02-12T09:38:43.245Z,99.81
2023-02-12T09:39:43.205Z,99.71
2023-02-12T09:40:43.244Z,99.71
2023-02-12T09:41:43.242Z,99.60
2023-02-12T09:42:43.237Z,99.56
2023-02-12T09:43:43.190Z,99.56
2023-02-12T09:44:43.217Z,99.46
2023-02-12T09:45:43.170Z,99.35
2023-02-12T09:46:43.194Z,99.35
2023-02-12T09:47:43.180Z,99.25
2023-02-12T09:48:43.146Z,99.05
2023-02-12T09:49:43.107Z,98.94
2023-02-12T09:50:43.134Z,98.94
2023-02-12T09:51:43.075Z,98.74
2023-02-12T09:52:43.055Z,98.74
2023-02-12T09:53:43.035Z,98.63
2023-02-12T09:54:43.059Z,98.63
2023-02-12T09:55:43.001Z,98.63
2023-02-12T09:56:43.005Z,98.59
2023-02-12T09:57:43.016Z,98.49
2023-02-12T09:58:43.132Z,98.49
2023-02-12T09:59:42.981Z,98.38
2023-02-12T10:00:42.972Z,98.38
2023-02-12T10:01:42.968Z,98.28
2023-02-12T10:02:43.001Z,98.18
2023-02-12T10:03:42.955Z,98.07
2023-02-12T10:04:58.753Z,98.07
2023-02-12T10:05:43.901Z,98.07
2023-02-12T10:06:42.913Z,97.97
2023-02-12T10:07:42.896Z,97.97
2023-02-12T10:08:42.886Z,97.87
2023-02-12T10:09:42.882Z,97.77
2023-02-12T10:10:42.862Z,97.66
2023-02-12T10:11:42.811Z,97.56
2023-02-12T10:12:42.832Z,97.56
2023-02-12T10:13:42.817Z,97.56
2023-02-12T10:14:42.787Z,97.56
2023-02-12T10:15:42.884Z,97.36
2023-02-12T10:16:42.781Z,97.31
2023-02-12T10:17:42.727Z,97.20
2023-02-12T10:18:42.761Z,97.20
2023-02-12T10:19:42.722Z,97.20
2023-02-12T10:20:42.731Z,97.10
2023-02-12T10:21:42.702Z,97.00
2023-02-12T10:22:55.882Z,97.00
2023-02-12T10:23:43.700Z,96.90
2023-02-12T10:24:42.669Z,96.80
2023-02-12T10:25:42.693Z,96.80
2023-02-12T10:26:42.628Z,96.69
2023-02-12T10:27:42.622Z,96.48
2023-02-12T10:28:42.678Z,96.28
2023-02-12T10:29:42.591Z,96.18
2023-02-12T10:30:42.576Z,96.18
2023-02-12T10:31:42.789Z,96.08
2023-02-12T10:32:42.532Z,95.62
2023-02-12T10:33:42.573Z,95.21
2023-02-12T10:34:42.494Z,94.80
2023-02-12T10:35:42.525Z,94.59
2023-02-12T10:36:42.491Z,94.59
2023-02-12T10:37:42.469Z,94.49
2023-02-12T10:38:42.496Z,94.49
2023-02-12T10:39:42.476Z,94.49
2023-02-12T10:40:42.461Z,94.29
2023-02-12T10:41:42.428Z,94.18
2023-02-12T10:42:43.392Z,93.98
2023-02-12T10:43:42.416Z,93.98
2023-02-12T10:44:42.397Z,93.87
2023-02-12T10:45:42.406Z,93.87
2023-02-12T10:46:42.510Z,93.77
2023-02-12T10:47:42.364Z,93.77
2023-02-12T10:48:42.330Z,93.67
2023-02-12T10:49:42.375Z,93.63
2023-02-12T10:50:42.334Z,93.63
2023-02-12T10:51:42.293Z,93.52
2023-02-12T10:52:42.263Z,93.52
2023-02-12T10:53:42.297Z,93.12
2023-02-12T10:54:42.254Z,93.01
2023-02-12T10:55:42.594Z,93.12
2023-02-12T10:56:42.285Z,93.21
2023-02-12T10:57:42.221Z,93.21
2023-02-12T10:58:42.221Z,93.12
2023-02-12T10:59:42.251Z,93.12
2023-02-12T11:00:42.225Z,93.21
2023-02-12T11:01:42.207Z,93.12
2023-02-12T11:02:42.167Z,93.01
2023-02-12T11:03:42.217Z,92.80
2023-02-12T11:04:42.138Z,92.70
2023-02-12T11:05:42.125Z,92.40
2023-02-12T11:06:42.091Z,92.19
2023-02-12T11:07:42.115Z,92.08
2023-02-12T11:08:42.060Z,91.99
2023-02-12T11:09:42.106Z,91.63
2023-02-12T11:10:42.061Z,91.37
2023-02-12T11:11:42.039Z,91.27
2023-02-12T11:12:42.010Z,91.27
2023-02-12T11:13:42.022Z,91.16
2023-02-12T11:14:42.005Z,91.27
2023-02-12T11:15:42.131Z,91.06
2023-02-12T11:16:42.034Z,90.75
2023-02-12T11:17:41.988Z,90.75
2023-02-12T11:18:41.993Z,90.85
2023-02-12T11:19:41.982Z,90.75
2023-02-12T11:20:41.908Z,90.65
2023-02-12T11:21:41.914Z,90.61
2023-02-12T11:22:41.972Z,90.71
2023-02-12T11:23:41.914Z,91.02
2023-02-12T11:24:41.868Z,91.12
2023-02-12T11:25:41.867Z,91.12
2023-02-12T11:26:41.863Z,91.12
2023-02-12T11:27:41.873Z,91.12
2023-02-12T11:28:41.995Z,91.02
2023-02-12T11:29:41.836Z,91.02
2023-02-12T11:30:41.835Z,91.12
2023-02-12T11:31:41.977Z,91.12
2023-02-12T11:32:41.789Z,91.12
2023-02-12T11:33:41.764Z,90.71
2023-02-12T11:34:41.765Z,90.20
2023-02-12T11:35:41.752Z,89.78
2023-02-12T11:36:41.729Z,89.78
2023-02-12T11:37:41.740Z,89.89
2023-02-12T11:38:41.675Z,89.99
2023-02-12T11:39:41.695Z,89.69
2023-02-12T11:40:41.721Z,89.48
2023-02-12T11:41:41.674Z,89.27
2023-02-12T11:42:41.642Z,89.17
2023-02-12T11:43:41.643Z,89.37
2023-02-12T11:44:41.607Z,89.37
2023-02-12T11:45:41.653Z,89.37
2023-02-12T11:46:41.612Z,88.96
2023-02-12T11:47:41.642Z,89.07
2023-02-12T11:48:41.554Z,89.17
2023-02-12T11:49:44.159Z,88.82
2023-02-12T11:50:41.617Z,88.51
2023-02-12T11:51:41.556Z,88.31
2023-02-12T11:52:41.517Z,88.51
2023-02-12T11:53:41.525Z,88.62
2023-02-12T11:54:41.499Z,88.72
2023-02-12T11:55:41.488Z,88.92
2023-02-12T11:56:41.491Z,88.82
2023-02-12T11:57:41.451Z,88.92
2023-02-12T11:58:41.432Z,89.03
2023-02-12T11:59:41.453Z,88.92
2023-02-12T12:00:41.429Z,88.82
2023-02-12T12:01:41.475Z,88.00
2023-02-12T12:02:41.430Z,87.49
2023-02-12T12:03:41.409Z,87.28
2023-02-12T12:04:41.361Z,87.38
2023-02-12T12:05:41.379Z,87.70
2023-02-12T12:06:45.377Z,88.00
2023-02-12T12:07:41.350Z,88.31
2023-02-12T12:08:41.318Z,88.41
2023-02-12T12:09:41.310Z,88.31
2023-02-12T12:10:41.309Z,87.79
2023-02-12T12:11:41.271Z,87.49
2023-02-12T12:12:41.275Z,87.28
2023-02-12T12:13:41.276Z,87.49
2023-02-12T12:14:41.238Z,87.59
2023-02-12T12:15:41.279Z,87.59
2023-02-12T12:16:41.256Z,87.59
2023-02-12T12:17:41.223Z,87.79
2023-02-12T12:18:41.169Z,87.59
2023-02-12T12:19:41.198Z,87.79
2023-02-12T12:20:41.154Z,87.79
2023-02-12T12:21:41.183Z,87.90
2023-02-12T12:22:41.120Z,88.10
2023-02-12T12:23:41.148Z,88.41
2023-02-12T12:24:41.107Z,88.57
2023-02-12T12:25:41.125Z,88.68
2023-02-12T12:26:41.066Z,88.78
2023-02-12T12:27:41.104Z,88.68
2023-02-12T12:28:41.185Z,88.68
2023-02-12T12:29:41.066Z,88.37
2023-02-12T12:30:41.180Z,88.27
2023-02-12T12:31:41.080Z,88.06
2023-02-12T12:32:41.020Z,87.76
2023-02-12T12:33:40.991Z,87.55
2023-02-12T12:34:40.977Z,87.34
2023-02-12T12:35:41.022Z,87.45
2023-02-12T12:36:40.962Z,87.65
2023-02-12T12:37:40.975Z,87.55
2023-02-12T12:38:40.947Z,87.24
2023-02-12T12:39:40.907Z,87.24
2023-02-12T12:40:40.923Z,87.24
2023-02-12T12:41:40.912Z,87.14
2023-02-12T12:42:41.064Z,87.04
2023-02-12T12:43:40.887Z,87.14
2023-02-12T12:44:40.923Z,87.14
2023-02-12T12:45:40.912Z,87.14
2023-02-12T12:46:40.819Z,87.20
2023-02-12T12:47:40.805Z,87.41
2023-02-12T12:48:40.811Z,87.51
2023-02-12T12:49:40.816Z,87.61
2023-02-12T12:50:40.841Z,87.30
2023-02-12T12:51:40.797Z,86.99
2023-02-12T12:52:40.750Z,86.52